Time;durP1;ratioP1;P1;durP2;ratioP2;P2;SDS_P1;SDS_P2;PMS_P1;PMS_P2;Temp;Humidity;BMP_temperature;BMP_pressure;BME280_temperature;BME280_humidity;BME280_pressure;Samples;Min_cycle;Max_cycle;Signal;HPM_P1;HPM_P2
2023/01/03 00:00:14;;;;;;;30.40;19.40;;;;;;;8.31;100.00;101229.59;5078084;28;20023;-69
2023/01/03 00:02:39;;;;;;;32.95;21.17;;;;;;;8.40;100.00;101242.38;5074019;28;20107;-69
2023/01/03 00:05:05;;;;;;;31.02;20.42;;;;;;;8.39;100.00;101249.53;5078896;28;20039;-69
2023/01/03 00:07:34;;;;;;;31.00;20.42;;;;;;;8.36;100.00;101246.22;5065944;28;20146;-69
2023/01/03 00:10:08;;;;;;;29.08;18.27;;;;;;;8.32;100.00;101250.03;5069909;28;20701;-69
2023/01/03 00:12:35;;;;;;;28.98;19.25;;;;;;;8.28;100.00;101257.38;5069233;28;20525;-69
2023/01/03 00:15:00;;;;;;;26.30;18.45;;;;;;;8.21;100.00;101247.13;5073040;28;20028;-68
2023/01/03 00:17:27;;;;;;;29.55;19.65;;;;;;;8.26;100.00;101269.13;5075995;28;20548;-68
2023/01/03 00:19:52;;;;;;;29.33;19.95;;;;;;;8.13;100.00;101250.28;5074865;28;20089;-69
2023/01/03 00:22:17;;;;;;;29.13;17.73;;;;;;;8.14;100.00;101251.16;5069107;28;20044;-69
2023/01/03 00:24:45;;;;;;;27.83;18.33;;;;;;;8.12;100.00;101261.06;5079282;28;20089;-69
2023/01/03 00:27:11;;;;;;;26.70;18.58;;;;;;;8.06;100.00;101267.66;5070861;28;20021;-68
2023/01/03 00:29:37;;;;;;;30.33;19.65;;;;;;;7.99;100.00;101265.47;5076739;28;20028;-69
2023/01/03 00:32:03;;;;;;;28.80;19.30;;;;;;;7.93;100.00;101269.38;5073226;28;20043;-68
2023/01/03 00:34:29;;;;;;;29.88;20.00;;;;;;;7.85;100.00;101262.78;5080500;28;20590;-69
2023/01/03 00:36:55;;;;;;;30.08;20.60;;;;;;;7.79;100.00;101268.50;5067865;28;20029;-68
2023/01/03 00:39:21;;;;;;;29.60;19.60;;;;;;;7.67;100.00;101274.63;5071732;28;20115;-69
2023/01/03 00:41:47;;;;;;;32.08;21.08;;;;;;;7.60;100.00;101287.47;5077484;28;20035;-69
2023/01/03 00:44:13;;;;;;;34.65;21.30;;;;;;;7.49;100.00;101281.91;5078995;28;20153;-69
2023/01/03 00:46:39;;;;;;;29.00;20.30;;;;;;;7.40;100.00;101273.59;5068605;28;20116;-68
2023/01/03 00:49:05;;;;;;;29.63;18.98;;;;;;;7.34;100.00;101277.47;5074583;28;20039;-69
2023/01/03 00:51:33;;;;;;;32.83;21.20;;;;;;;7.27;100.00;101278.81;5071577;28;20450;-68
2023/01/03 00:54:00;;;;;;;34.05;21.65;;;;;;;7.04;100.00;101260.63;5077887;28;20059;-68
2023/01/03 00:56:30;;;;;;;30.98;20.42;;;;;;;7.09;100.00;101287.03;5074888;28;20024;-69
2023/01/03 00:58:56;;;;;;;29.55;20.25;;;;;;;7.04;100.00;101290.78;5076542;28;20039;-68
2023/01/03 01:01:25;;;;;;;28.73;19.67;;;;;;;6.97;100.00;101281.44;5072901;28;20085;-69
2023/01/03 01:03:58;;;;;;;30.25;19.00;;;;;;;6.93;100.00;101298.56;5083678;28;20073;-69
2023/01/03 01:06:28;;;;;;;33.58;19.55;;;;;;;6.88;100.00;101300.66;5072667;28;20111;-68
2023/01/03 01:08:57;;;;;;;30.20;18.48;;;;;;;6.73;100.00;101289.97;5071355;28;20112;-68
2023/01/03 01:11:24;;;;;;;30.35;18.65;;;;;;;6.70;100.00;101296.34;5075128;28;20150;-69
2023/01/03 01:13:50;;;;;;;32.33;19.98;;;;;;;6.69;100.00;101302.63;5074357;28;20043;-68
2023/01/03 01:16:22;;;;;;;29.13;19.33;;;;;;;6.51;100.00;101279.66;5084430;28;20023;-69
2023/01/03 01:18:49;;;;;;;27.85;18.25;;;;;;;6.56;100.00;101290.94;5080469;28;20036;-68
2023/01/03 01:21:20;;;;;;;31.15;19.23;;;;;;;6.57;100.00;101294.44;5075732;28;20031;-69
2023/01/03 01:23:46;;;;;;;31.38;19.27;;;;;;;6.60;100.00;101313.81;5074813;28;20028;-69
2023/01/03 01:26:15;;;;;;;32.47;20.65;;;;;;;6.57;100.00;101319.31;5076842;28;20024;-68
2023/01/03 01:28:41;;;;;;;30.98;20.20;;;;;;;6.58;100.00;101322.84;5073374;28;20336;-69
2023/01/03 01:31:09;;;;;;;32.10;21.05;;;;;;;6.55;100.00;101323.84;5074983;28;20624;-68
2023/01/03 01:33:35;;;;;;;34.15;22.70;;;;;;;6.55;100.00;101323.00;5070885;28;20032;-68
2023/01/03 01:36:10;;;;;;;37.05;22.98;;;;;;;6.59;100.00;101313.88;5074726;28;20028;-69
2023/01/03 01:38:36;;;;;;;42.40;25.65;;;;;;;6.79;100.00;101319.84;5078413;28;20024;-69
2023/01/03 01:41:02;;;;;;;41.22;26.98;;;;;;;6.90;100.00;101303.19;5069114;28;20031;-69
2023/01/03 01:46:16;;;;;;;37.25;24.88;;;;;;;7.09;100.00;101311.88;5075140;28;20492;-69
2023/01/03 01:48:42;;;;;;;39.00;26.70;;;;;;;7.03;100.00;101313.09;5069305;28;20047;-69
2023/01/03 01:51:09;;;;;;;39.03;26.48;;;;;;;6.90;100.00;101300.53;5066762;28;20630;-69
2023/01/03 01:53:38;;;;;;;39.80;25.65;;;;;;;6.90;100.00;101314.75;5066717;28;20066;-69
2023/01/03 01:56:07;;;;;;;41.03;25.55;;;;;;;6.89;100.00;101328.16;5065912;28;20034;-69
2023/01/03 01:58:36;;;;;;;38.67;24.75;;;;;;;6.87;100.00;101335.41;5078073;28;20027;-69
2023/01/03 02:01:09;;;;;;;32.42;23.80;;;;;;;6.73;100.00;101324.63;5073482;28;20039;-69
2023/01/03 02:03:35;;;;;;;37.15;21.77;;;;;;;6.52;100.00;101337.34;5079291;28;20063;-69
2023/01/03 02:06:01;;;;;;;28.98;22.10;;;;;;;6.17;100.00;101321.56;5076049;28;20434;-69
2023/01/03 02:08:27;;;;;;;29.35;21.33;;;;;;;5.99;100.00;101320.75;5079618;28;20382;-69
2023/01/03 02:10:55;;;;;;;32.88;21.85;;;;;;;5.97;100.00;101351.06;5071081;28;20031;-69
2023/01/03 02:13:56;;;;;;;34.55;22.45;;;;;;;6.04;100.00;101352.47;5081388;28;20089;-69
2023/01/03 02:16:39;;;;;;;29.95;22.60;;;;;;;5.80;100.00;101351.91;5071824;28;20089;-69
2023/01/03 02:19:45;;;;;;;30.08;21.83;;;;;;;5.74;100.00;101338.91;5064793;28;20028;-69
2023/01/03 02:22:22;;;;;;;31.25;22.40;;;;;;;5.63;100.00;101338.59;5063515;28;20084;-69
2023/01/03 02:25:17;;;;;;;35.63;23.15;;;;;;;5.57;100.00;101349.56;5076076;28;20494;-69
2023/01/03 02:28:10;;;;;;;31.52;23.08;;;;;;;5.47;100.00;101345.66;5057942;28;20052;-69
2023/01/03 02:30:47;;;;;;;35.38;25.85;;;;;;;5.50;100.00;101349.94;5068486;28;20032;-69
2023/01/03 02:33:44;;;;;;;52.80;26.77;;;;;;;5.45;100.00;101359.97;5070021;28;20040;-69
2023/01/03 02:36:18;;;;;;;34.35;24.33;;;;;;;5.35;100.00;101348.91;5058376;28;20114;-69
2023/01/03 02:39:09;;;;;;;41.55;26.27;;;;;;;5.25;100.00;101302.44;5066905;28;20020;-69
2023/01/03 02:41:41;;;;;;;40.72;26.00;;;;;;;5.40;100.00;101343.38;5063980;28;20024;-69
2023/01/03 02:44:24;;;;;;;40.75;25.95;;;;;;;5.30;100.00;101342.97;5097271;27;20040;-69
2023/01/03 02:47:08;;;;;;;32.95;24.75;;;;;;;5.15;100.00;101343.72;5069771;28;20070;-69
2023/01/03 02:49:57;;;;;;;35.78;25.77;;;;;;;5.20;100.00;101344.38;5067462;28;20367;-69
2023/01/03 02:52:26;;;;;;;34.47;26.45;;;;;;;5.11;100.00;101347.47;5065401;28;20024;-69
2023/01/03 02:54:57;;;;;;;36.10;25.88;;;;;;;5.08;100.00;101344.97;5063635;28;20514;-69
2023/01/03 02:57:41;;;;;;;37.67;27.65;;;;;;;5.13;100.00;101344.75;5066084;28;20024;-69
2023/01/03 03:00:10;;;;;;;34.97;25.73;;;;;;;5.26;100.00;101344.06;5068179;28;20024;-69
2023/01/03 03:02:42;;;;;;;37.83;26.65;;;;;;;5.05;100.00;101325.63;5069778;28;20031;-69
2023/01/03 03:05:13;;;;;;;38.22;27.90;;;;;;;4.98;100.00;101333.06;5069059;28;20043;-69
2023/01/03 03:07:39;;;;;;;35.55;26.90;;;;;;;4.90;100.00;101324.59;5065334;28;20082;-69
2023/01/03 03:13:12;;;;;;;37.67;27.25;;;;;;;5.11;100.00;101347.47;5070919;28;20047;-69
2023/01/03 03:16:02;;;;;;;36.70;27.90;;;;;;;5.19;100.00;101347.09;5077694;28;20017;-69
2023/01/03 03:18:57;;;;;;;38.25;28.48;;;;;;;5.14;100.00;101354.44;5072003;28;20048;-69
2023/01/03 03:28:33;;;;;;;38.63;28.05;;;;;;;5.01;100.00;101359.50;5069901;28;20051;-69
2023/01/03 03:29:56;;;;;;;42.55;28.35;;;;;;;4.87;100.00;101353.97;5067240;28;20028;-69
2023/01/03 03:32:25;;;;;;;41.92;29.15;;;;;;;4.84;100.00;101355.94;5068785;28;20122;-69
2023/01/03 03:34:53;;;;;;;43.83;30.38;;;;;;;5.00;100.00;101362.22;5068922;28;20016;-69
2023/01/03 03:37:22;;;;;;;43.47;29.25;;;;;;;4.94;100.00;101347.44;5076272;28;20028;-69
2023/01/03 03:45:42;;;;;;;46.55;30.52;;;;;;;4.99;100.00;101363.19;5062786;28;20059;-69
2023/01/03 03:48:21;;;;;;;45.83;29.75;;;;;;;4.97;100.00;101360.59;5065618;28;20082;-69
2023/01/03 03:50:51;;;;;;;46.08;30.20;;;;;;;5.07;100.00;101379.59;5069428;28;20089;-69
2023/01/03 03:53:20;;;;;;;45.38;30.83;;;;;;;5.18;100.00;101372.81;5080500;28;20012;-69
2023/01/03 03:55:54;;;;;;;51.13;31.20;;;;;;;5.28;100.00;101370.56;5066817;28;20457;-69
2023/01/03 03:58:25;;;;;;;44.55;29.70;;;;;;;5.29;100.00;101372.31;5065676;28;20024;-69
2023/01/03 04:00:53;;;;;;;50.97;31.58;;;;;;;5.29;100.00;101367.81;5080636;28;20411;-69
2023/01/03 04:03:20;;;;;;;49.72;31.13;;;;;;;5.42;100.00;101362.78;5070766;28;20276;-69
2023/01/03 04:05:52;;;;;;;49.92;29.73;;;;;;;5.40;100.00;101370.84;5065279;28;20024;-68
2023/01/03 04:08:18;;;;;;;49.28;29.58;;;;;;;5.38;100.00;101379.84;5080642;28;20169;-69
2023/01/03 04:10:43;;;;;;;52.92;30.23;;;;;;;5.33;100.00;101374.75;5076097;28;20115;-69
2023/01/03 04:13:09;;;;;;;50.03;30.58;;;;;;;5.25;100.00;101352.13;5078592;28;20502;-69
2023/01/03 04:15:34;;;;;;;53.58;31.02;;;;;;;5.43;100.00;101383.13;5081349;28;20576;-69
2023/01/03 04:18:03;;;;;;;50.42;30.65;;;;;;;5.45;100.00;101390.06;5076564;28;20378;-69
2023/01/03 04:20:28;;;;;;;55.85;30.75;;;;;;;5.50;100.00;101385.41;5067244;28;20060;-69
2023/01/03 04:22:54;;;;;;;65.30;34.28;;;;;;;5.61;100.00;101377.72;5071801;28;20020;-69
2023/01/03 04:25:20;;;;;;;62.67;35.28;;;;;;;5.65;100.00;101384.63;5066763;28;20031;-69
2023/01/03 04:27:45;;;;;;;67.65;34.25;;;;;;;5.69;100.00;101386.19;5081079;28;20025;-69
2023/01/03 04:30:12;;;;;;;63.72;32.10;;;;;;;5.69;100.00;101359.59;5076559;28;20032;-69
2023/01/03 04:32:37;;;;;;;60.17;32.10;;;;;;;5.88;100.00;101388.81;5069413;28;20068;-69
2023/01/03 04:35:03;;;;;;;59.35;30.20;;;;;;;6.08;100.00;101393.97;5083813;28;20056;-69
2023/01/03 04:37:29;;;;;;;57.35;29.92;;;;;;;6.02;100.00;101384.50;5080930;28;20034;-69
2023/01/03 04:39:55;;;;;;;54.95;28.17;;;;;;;6.15;100.00;101382.91;5075506;28;20039;-69
2023/01/03 04:45:05;;;;;;;59.28;31.05;;;;;;;6.45;100.00;101375.09;5067151;28;20750;-68
2023/01/03 04:47:30;;;;;;;60.45;29.08;;;;;;;6.54;100.00;101372.78;5067315;28;20453;-68
2023/01/03 04:49:56;;;;;;;59.10;30.63;;;;;;;6.74;100.00;101393.88;5067419;28;20040;-68
2023/01/03 04:52:21;;;;;;;59.03;31.23;;;;;;;6.70;100.00;101392.31;5067724;28;20031;-68
2023/01/03 04:54:46;;;;;;;57.97;28.02;;;;;;;6.69;100.00;101385.28;5073008;28;20074;-68
2023/01/03 04:57:12;;;;;;;55.08;30.73;;;;;;;6.74;100.00;101383.19;5067527;28;20024;-69
2023/01/03 04:59:37;;;;;;;61.60;31.38;;;;;;;6.81;100.00;101392.56;5068532;28;20032;-69
2023/01/03 05:02:03;;;;;;;55.70;30.13;;;;;;;6.83;100.00;101389.81;5065686;28;20040;-69
2023/01/03 05:04:28;;;;;;;63.25;33.08;;;;;;;6.91;100.00;101399.13;5065984;28;20040;-69
2023/01/03 05:06:55;;;;;;;57.78;30.70;;;;;;;6.88;100.00;101396.66;5067955;28;20036;-69
2023/01/03 05:09:21;;;;;;;58.55;32.22;;;;;;;6.83;100.00;101390.69;5071757;28;20063;-69
2023/01/03 05:11:46;;;;;;;55.00;31.52;;;;;;;6.79;100.00;101389.16;5066840;28;20074;-69
2023/01/03 05:14:12;;;;;;;57.95;32.92;;;;;;;6.68;100.00;101404.84;5065659;28;20032;-69
2023/01/03 05:16:37;;;;;;;60.88;32.40;;;;;;;6.74;100.00;101398.34;5070276;28;20020;-69
2023/01/03 05:19:03;;;;;;;59.53;32.97;;;;;;;6.57;100.00;101379.72;5069329;28;20044;-69
2023/01/03 05:27:03;;;;;;;55.88;32.05;;;;;;;6.72;100.00;101400.22;5066304;28;20044;-69
2023/01/03 05:29:29;;;;;;;54.85;32.28;;;;;;;6.75;100.00;101400.06;5069299;28;20036;-69
2023/01/03 05:31:55;;;;;;;51.25;32.05;;;;;;;6.63;100.00;101395.41;5066303;28;20027;-69
2023/01/03 05:34:21;;;;;;;51.05;31.45;;;;;;;6.72;100.00;101406.44;5065494;28;20387;-69
2023/01/03 05:36:46;;;;;;;53.67;31.77;;;;;;;6.53;100.00;101388.84;5066188;28;20694;-69
2023/01/03 05:39:11;;;;;;;58.28;33.40;;;;;;;6.57;100.00;101399.25;5065357;28;20500;-69
2023/01/03 05:44:21;;;;;;;50.53;31.63;;;;;;;6.56;100.00;101416.22;5068744;28;20517;-69
2023/01/03 05:46:47;;;;;;;52.42;32.10;;;;;;;6.57;100.00;101419.72;5071047;28;20040;-69
2023/01/03 05:49:12;;;;;;;49.88;29.75;;;;;;;6.51;100.00;101412.03;5067669;28;20225;-69
2023/01/03 05:51:38;;;;;;;49.13;29.55;;;;;;;6.12;100.00;101361.75;5065397;28;20455;-69
2023/01/03 05:54:04;;;;;;;48.08;28.33;;;;;;;6.42;100.00;101423.22;5065243;28;20055;-69
2023/01/03 05:56:30;;;;;;;51.80;30.05;;;;;;;6.36;100.00;101411.06;5077369;28;20085;-69
2023/01/03 05:58:56;;;;;;;54.20;30.20;;;;;;;6.49;100.00;101428.09;5080539;28;20119;-69
2023/01/03 06:01:25;;;;;;;49.88;29.42;;;;;;;6.41;100.00;101418.81;5076940;28;20514;-69
2023/01/03 06:03:51;;;;;;;51.47;30.98;;;;;;;6.36;100.00;101423.53;5067898;28;20151;-69
2023/01/03 06:06:16;;;;;;;49.55;28.77;;;;;;;6.49;100.00;101444.09;5062331;28;20032;-70
2023/01/03 06:08:42;;;;;;;48.10;30.90;;;;;;;6.49;100.00;101454.75;5070025;28;20036;-70
2023/01/03 06:11:10;;;;;;;48.10;29.60;;;;;;;6.62;100.00;101457.66;5071786;28;20025;-70
2023/01/03 06:13:36;;;;;;;46.72;28.33;;;;;;;6.54;100.00;101460.72;5065991;28;20024;-70
2023/01/03 06:18:51;;;;;;;41.58;26.70;;;;;;;6.48;100.00;101469.03;5068049;28;20044;-70
2023/01/03 06:21:17;;;;;;;43.40;26.80;;;;;;;6.46;100.00;101462.94;5070778;28;20028;-70
2023/01/03 06:23:44;;;;;;;44.78;25.83;;;;;;;6.40;100.00;101471.25;5076675;28;20539;-70
2023/01/03 06:26:10;;;;;;;40.10;25.27;;;;;;;6.36;100.00;101472.34;5073332;28;20028;-69
2023/01/03 06:28:35;;;;;;;42.10;26.20;;;;;;;6.51;100.00;101481.34;5069905;28;20035;-70
2023/01/03 06:31:03;;;;;;;42.40;25.08;;;;;;;6.37;100.00;101482.06;5081143;28;20038;-69
2023/01/03 06:33:28;;;;;;;38.17;24.13;;;;;;;6.24;100.00;101473.00;5064767;28;20024;-70
2023/01/03 06:35:54;;;;;;;38.95;23.83;;;;;;;6.26;100.00;101481.75;5073396;28;20526;-69
2023/01/03 06:38:19;;;;;;;42.55;24.35;;;;;;;6.36;100.00;101492.81;5071160;28;20028;-70
2023/01/03 06:40:48;;;;;;;41.10;24.98;;;;;;;6.27;100.00;101475.50;5068654;28;20693;-70
2023/01/03 06:43:14;;;;;;;42.63;24.75;;;;;;;6.33;100.00;101474.31;5079699;28;20476;-70
2023/01/03 06:53:59;;;;;;;38.78;23.67;;;;;;;6.23;100.00;101508.53;5077498;28;20042;-70
2023/01/03 06:56:25;;;;;;;39.55;23.73;;;;;;;6.25;100.00;101516.47;5069659;28;20103;-70
2023/01/03 06:58:51;;;;;;;38.78;22.65;;;;;;;6.22;100.00;101511.28;5065093;28;20131;-70
2023/01/03 07:01:17;;;;;;;39.30;22.50;;;;;;;6.33;100.00;101520.47;5077856;28;20029;-70
2023/01/03 07:03:43;;;;;;;38.45;23.48;;;;;;;6.21;100.00;101504.25;5071541;28;20090;-70
2023/01/03 07:06:08;;;;;;;38.55;23.13;;;;;;;6.25;100.00;101517.34;5074563;28;20025;-70
2023/01/03 07:08:34;;;;;;;38.40;22.30;;;;;;;6.32;100.00;101521.41;5075786;28;20112;-70
2023/01/03 07:11:00;;;;;;;37.65;22.30;;;;;;;6.32;100.00;101524.06;5078018;28;20028;-70
2023/01/03 07:16:18;;;;;;;37.60;22.15;;;;;;;6.37;100.00;101542.47;5071052;28;20031;-70
2023/01/03 07:18:44;;;;;;;40.00;23.02;;;;;;;6.38;100.00;101545.06;5066303;28;20040;-70
2023/01/03 07:21:09;;;;;;;36.97;21.52;;;;;;;6.36;100.00;101530.94;5068129;28;20058;-70
2023/01/03 07:23:35;;;;;;;35.45;21.30;;;;;;;6.34;100.00;101546.19;5082004;28;20024;-70
2023/01/03 07:26:01;;;;;;;37.13;22.60;;;;;;;6.32;100.00;101540.06;5071242;28;20706;-70
2023/01/03 07:28:26;;;;;;;40.90;21.83;;;;;;;6.21;100.00;101553.06;5069412;28;20103;-70
2023/01/03 07:30:52;;;;;;;35.42;20.17;;;;;;;6.11;100.00;101530.50;5072687;28;20032;-70
2023/01/03 07:33:18;;;;;;;37.35;20.23;;;;;;;6.13;100.00;101525.94;5063883;28;20036;-70
2023/01/03 07:35:44;;;;;;;37.67;20.83;;;;;;;6.08;100.00;101527.97;5078519;28;20396;-70
2023/01/03 07:38:11;;;;;;;37.72;20.55;;;;;;;6.21;100.00;101545.06;5062763;28;20032;-70
2023/01/03 07:40:37;;;;;;;36.85;20.75;;;;;;;6.21;100.00;101538.88;5066278;28;20075;-70
2023/01/03 07:45:47;;;;;;;35.80;20.40;;;;;;;6.27;100.00;101544.75;5075924;28;20428;-70
2023/01/03 07:48:13;;;;;;;37.60;20.55;;;;;;;6.33;100.00;101549.78;5071695;28;20127;-70
2023/01/03 07:50:39;;;;;;;38.47;21.67;;;;;;;6.28;100.00;101526.97;5062467;28;20474;-70
2023/01/03 07:53:05;;;;;;;37.92;20.95;;;;;;;6.50;100.00;101555.09;5079061;28;20089;-70
2023/01/03 07:55:32;;;;;;;35.80;20.08;;;;;;;6.50;100.00;101560.44;5079960;28;20815;-70
2023/01/03 07:57:58;;;;;;;34.13;19.88;;;;;;;6.50;100.00;101551.56;5076635;28;20108;-70
2023/01/03 08:00:24;;;;;;;34.85;19.63;;;;;;;6.54;100.00;101554.00;5072589;28;20115;-70
2023/01/03 08:02:54;;;;;;;29.92;18.40;;;;;;;6.58;100.00;101563.56;5066630;28;20088;-70
2023/01/03 08:05:23;;;;;;;28.55;17.55;;;;;;;6.61;100.00;101567.91;5069738;28;20086;-70
2023/01/03 08:07:51;;;;;;;35.17;19.90;;;;;;;6.62;100.00;101562.44;5077488;28;20024;-70
2023/01/03 08:13:16;;;;;;;35.80;20.45;;;;;;;6.53;100.00;101536.31;5081993;28;20402;-70
2023/01/03 08:15:54;;;;;;;33.38;19.17;;;;;;;6.69;100.00;101563.00;5078824;28;20367;-70
2023/01/03 08:18:24;;;;;;;35.67;19.58;;;;;;;6.64;100.00;101551.72;5083986;28;20016;-70
2023/01/03 08:20:53;;;;;;;39.47;21.77;;;;;;;6.69;100.00;101553.22;5073348;28;20032;-70
2023/01/03 08:23:18;;;;;;;34.17;19.25;;;;;;;6.82;100.00;101570.31;5081739;28;20105;-70
2023/01/03 08:25:43;;;;;;;38.35;19.17;;;;;;;6.80;100.00;101568.63;5070832;28;20020;-70
2023/01/03 08:28:10;;;;;;;33.70;19.05;;;;;;;6.86;100.00;101579.84;5066620;28;20096;-70
2023/01/03 08:30:40;;;;;;;27.60;17.90;;;;;;;6.93;100.00;101575.91;5067731;28;20038;-70
2023/01/03 08:33:09;;;;;;;29.13;17.30;;;;;;;6.81;100.00;101555.22;5074006;28;20059;-70
2023/01/03 08:35:38;;;;;;;33.85;18.40;;;;;;;7.21;100.00;101574.44;5082475;28;20036;-69
2023/01/03 08:38:06;;;;;;;29.25;17.90;;;;;;;7.14;100.00;101579.25;5081625;28;20490;-70
2023/01/03 08:40:35;;;;;;;28.77;17.25;;;;;;;7.02;100.00;101569.22;5077413;28;20026;-70
2023/01/03 08:43:02;;;;;;;33.13;18.20;;;;;;;7.10;100.00;101577.69;5073425;28;20486;-70
2023/01/03 08:45:27;;;;;;;31.30;19.42;;;;;;;7.14;100.00;101589.06;5077771;28;20081;-70
2023/01/03 08:47:56;;;;;;;29.33;17.42;;;;;;;7.09;100.00;101586.63;5081761;28;20048;-70
2023/01/03 08:50:22;;;;;;;32.63;19.67;;;;;;;7.07;100.00;101574.31;5084558;28;20027;-70
2023/01/03 08:52:47;;;;;;;31.25;18.17;;;;;;;7.12;100.00;101597.13;5069775;28;20405;-70
2023/01/03 08:55:13;;;;;;;32.95;18.83;;;;;;;7.14;100.00;101589.06;5081312;28;20122;-70
2023/01/03 08:57:39;;;;;;;32.03;18.27;;;;;;;6.99;100.00;101558.72;5067140;28;20032;-70
2023/01/03 09:00:05;;;;;;;34.83;19.55;;;;;;;7.31;100.00;101576.53;5075427;28;20043;-70
2023/01/03 09:02:33;;;;;;;32.53;19.15;;;;;;;7.42;100.00;101581.28;5085415;28;20024;-70
2023/01/03 09:04:59;;;;;;;32.20;19.48;;;;;;;7.32;100.00;101578.25;5076921;28;20035;-70
2023/01/03 09:07:24;;;;;;;29.48;18.95;;;;;;;7.54;100.00;101576.13;5076922;28;20032;-70
2023/01/03 09:09:50;;;;;;;34.10;19.55;;;;;;;7.61;100.00;101580.16;5084112;28;20432;-70
2023/01/03 09:12:15;;;;;;;34.78;18.67;;;;;;;7.63;100.00;101585.44;5081308;28;20043;-70
2023/01/03 09:14:41;;;;;;;32.92;20.23;;;;;;;7.66;100.00;101585.25;5086776;28;20039;-70
2023/01/03 09:17:06;;;;;;;35.85;19.02;;;;;;;7.50;100.00;101598.59;5086043;28;20121;-70
2023/01/03 09:19:31;;;;;;;31.55;19.38;;;;;;;7.44;100.00;101585.59;5071708;28;20474;-70
2023/01/03 09:21:57;;;;;;;34.15;20.67;;;;;;;7.57;100.00;101583.09;5077770;28;20044;-70
2023/01/03 09:24:22;;;;;;;37.17;20.33;;;;;;;7.56;100.00;101587.59;5075525;28;20028;-70
2023/01/03 09:26:48;;;;;;;41.72;23.83;;;;;;;7.45;100.00;101589.13;5073753;28;20036;-70
2023/01/03 09:29:13;;;;;;;42.45;23.50;;;;;;;7.44;100.00;101580.25;5079245;28;20137;-70
2023/01/03 09:31:39;;;;;;;40.42;22.60;;;;;;;7.43;100.00;101569.66;5081829;28;20114;-70
2023/01/03 09:34:04;;;;;;;34.80;20.50;;;;;;;7.57;100.00;101596.44;5075574;28;20129;-69
2023/01/03 09:36:30;;;;;;;32.95;19.67;;;;;;;7.57;100.00;101585.75;5078611;28;20031;-70
2023/01/03 09:38:56;;;;;;;38.97;20.60;;;;;;;7.62;100.00;101579.25;5067530;28;20025;-70
2023/01/03 09:41:23;;;;;;;36.28;19.42;;;;;;;7.63;100.00;101580.09;5081653;28;20052;-70
2023/01/03 09:43:55;;;;;;;34.83;19.63;;;;;;;7.70;100.00;101573.47;5082510;28;20032;-70
2023/01/03 09:46:23;;;;;;;42.50;22.33;;;;;;;7.73;100.00;101574.16;5079580;28;20047;-70
2023/01/03 09:48:50;;;;;;;39.53;21.50;;;;;;;7.83;100.00;101579.84;5076753;28;20067;-70
2023/01/03 10:05:43;;;;;;;41.20;22.05;;;;;;;7.89;100.00;101576.81;5078658;28;20127;-70
2023/01/03 10:08:18;;;;;;;38.55;22.25;;;;;;;7.94;100.00;101580.97;5076741;28;20111;-70
2023/01/03 10:11:02;;;;;;;43.63;22.45;;;;;;;8.20;100.00;101580.34;5071472;28;20117;-70
2023/01/03 10:13:33;;;;;;;37.22;21.88;;;;;;;8.11;100.00;101575.50;5065171;28;20443;-70
2023/01/03 10:16:07;;;;;;;42.85;23.27;;;;;;;8.10;100.00;101572.94;5074635;28;20036;-67
2023/01/03 10:18:41;;;;;;;38.78;21.45;;;;;;;8.20;100.00;101560.75;5077738;28;20032;-67
2023/01/03 10:21:08;;;;;;;;;;;;;;;8.29;100.00;101561.09;5072281;28;20032;-70
2023/01/03 10:23:34;;;;;;;39.92;22.38;;;;;;;8.30;100.00;101565.50;5080724;28;19916;-70
2023/01/03 10:26:00;;;;;;;41.72;21.98;;;;;;;8.21;100.00;101565.13;5065723;28;20103;-70
2023/01/03 10:28:36;;;;;;;46.55;22.92;;;;;;;8.11;100.00;101530.09;5068757;28;20032;-70
2023/01/03 10:31:32;;;;;;;39.28;22.70;;;;;;;8.21;100.00;101565.13;5073153;28;20024;-70
2023/01/03 10:33:58;;;;;;;45.80;23.02;;;;;;;8.17;100.00;101563.59;5080055;28;20043;-70
2023/01/03 10:36:23;;;;;;;44.83;23.20;;;;;;;8.13;100.00;101560.22;5085030;28;20028;-70
2023/01/03 10:39:06;;;;;;;45.22;24.90;;;;;;;8.17;100.00;101555.59;5068585;28;20033;-70
2023/01/03 10:41:43;;;;;;;43.78;23.65;;;;;;;8.31;100.00;101559.22;5064457;28;20078;-70
2023/01/03 10:44:30;;;;;;;44.10;24.42;;;;;;;8.27;100.00;101563.03;5069670;28;20146;-70
2023/01/03 10:47:14;;;;;;;49.15;24.40;;;;;;;8.21;100.00;101541.97;5067240;28;20109;-70
2023/01/03 10:49:43;;;;;;;;;;;;;;;8.37;100.00;101561.53;5073740;28;20466;-70
2023/01/03 10:52:17;;;;;;;44.35;23.00;;;;;;;8.36;100.00;101556.28;5077103;28;19922;-71
2023/01/03 10:54:47;;;;;;;;;;;;;;;8.33;100.00;101559.13;5079856;28;20036;-70
2023/01/03 10:57:43;;;;;;;49.83;25.00;;;;;;;8.39;100.00;101558.75;5074139;28;19924;-70
2023/01/03 11:00:22;;;;;;;47.10;24.13;;;;;;;8.41;100.00;101557.72;5071763;28;20084;-70
2023/01/03 11:02:48;;;;;;;58.60;29.20;;;;;;;8.56;100.00;101551.47;5084615;28;20024;-70
2023/01/03 11:05:19;;;;;;;53.08;28.20;;;;;;;8.70;100.00;101548.81;5074377;28;20027;-69
2023/01/03 11:07:56;;;;;;;49.35;27.20;;;;;;;8.61;100.00;101532.47;5069802;28;21126;-69
2023/01/03 11:10:25;;;;;;;53.38;27.83;;;;;;;8.85;100.00;101552.38;5084234;28;20055;-70
2023/01/03 11:12:50;;;;;;;53.53;26.88;;;;;;;8.87;100.00;101532.59;5086565;28;20043;-69
2023/01/03 11:15:30;;;;;;;55.05;28.67;;;;;;;8.71;100.00;101538.97;5074771;28;20397;-69
2023/01/03 11:18:02;;;;;;;58.58;29.40;;;;;;;8.73;100.00;101542.41;5065031;28;20021;-70
2023/01/03 11:20:41;;;;;;;55.08;28.10;;;;;;;8.70;100.00;101519.38;5066321;28;20040;-69
2023/01/03 11:23:38;;;;;;;56.55;29.63;;;;;;;8.68;100.00;101540.00;5072672;28;20034;-70
2023/01/03 11:26:52;;;;;;;59.63;28.98;;;;;;;8.61;100.00;101527.13;5063604;28;20036;-70
2023/01/03 11:29:38;;;;;;;54.28;29.23;;;;;;;8.66;100.00;101528.56;5044581;28;20051;-70
2023/01/03 11:32:22;;;;;;;55.05;28.95;;;;;;;8.68;100.00;101515.94;5082633;28;20016;-68
2023/01/03 11:35:18;;;;;;;62.63;29.52;;;;;;;8.70;100.00;101515.84;5073112;28;20089;-68
2023/01/03 11:38:10;;;;;;;61.97;31.25;;;;;;;8.70;100.00;101507.81;5087023;28;20459;-70
2023/01/03 11:40:58;;;;;;;62.15;31.40;;;;;;;8.74;100.00;101512.06;5066135;28;20091;-70
2023/01/03 11:43:42;;;;;;;58.17;27.85;;;;;;;8.80;100.00;101517.00;5068272;28;20036;-70
2023/01/03 11:46:15;;;;;;;55.25;28.65;;;;;;;8.82;100.00;101504.41;5055338;28;20097;-70
2023/01/03 11:48:49;;;;;;;61.27;30.97;;;;;;;8.85;100.00;101498.84;5059917;28;20097;-70
2023/01/03 11:51:27;;;;;;;53.10;28.80;;;;;;;9.01;100.00;101504.97;5053892;28;20024;-70
2023/01/03 11:54:36;;;;;;;56.35;30.17;;;;;;;8.94;100.00;101476.91;5063201;28;20031;-70
2023/01/03 11:57:18;;;;;;;53.38;28.63;;;;;;;9.03;100.00;101495.91;5071823;28;20382;-70
2023/01/03 12:00:10;;;;;;;58.42;31.30;;;;;;;9.05;100.00;101494.00;5058562;28;20115;-70
2023/01/03 12:03:03;;;;;;;59.83;32.15;;;;;;;9.06;100.00;101498.38;5093909;28;20128;-70
2023/01/03 12:05:45;;;;;;;56.80;31.88;;;;;;;9.09;100.00;101492.84;5055687;28;20047;-70
2023/01/03 12:08:11;;;;;;;60.50;33.55;;;;;;;9.19;100.00;101501.13;5060071;28;20024;-70
2023/01/03 12:10:56;;;;;;;55.88;29.90;;;;;;;9.17;100.00;101500.38;5066548;28;20039;-70
2023/01/03 12:13:40;;;;;;;63.25;32.58;;;;;;;9.15;100.00;101503.16;5051543;28;20068;-70
2023/01/03 12:16:15;;;;;;;65.73;34.30;;;;;;;9.18;100.00;101502.09;5062049;28;20477;-70
2023/01/03 12:18:40;;;;;;;55.60;31.27;;;;;;;9.19;100.00;101512.72;5070016;28;20103;-70
2023/01/03 12:21:33;;;;;;;60.10;33.30;;;;;;;9.21;100.00;101494.75;5080114;28;20490;-70
2023/01/03 12:24:15;;;;;;;68.20;36.08;;;;;;;9.25;100.00;101498.06;5069414;28;20030;-70
2023/01/03 12:26:43;;;;;;;59.42;33.35;;;;;;;9.29;100.00;101495.09;5074584;28;20067;-70